sensor_id;sensor_type;location;lat;lon;timestamp;P1;durP1;ratioP1;P2;durP2;ratioP2
48627;SDS011;34424;52.234;6.500;2023-04-03T00:03:51;3.60;;;2.07;;
48627;SDS011;34424;52.234;6.500;2023-04-03T00:08:56;3.93;;;1.90;;
48627;SDS011;34424;52.234;6.500;2023-04-03T00:13:58;3.72;;;2.08;;
48627;SDS011;34424;52.234;6.500;2023-04-03T00:19:01;4.53;;;2.13;;
48627;SDS011;34424;52.234;6.500;2023-04-03T00:24:06;6.55;;;2.08;;
48627;SDS011;34424;52.234;6.500;2023-04-03T00:29:09;2.50;;;2.00;;
48627;SDS011;34424;52.234;6.500;2023-04-03T00:34:11;4.80;;;2.13;;
48627;SDS011;34424;52.234;6.500;2023-04-03T00:39:15;8.88;;;2.75;;
48627;SDS011;34424;52.234;6.500;2023-04-03T00:44:19;4.22;;;2.15;;
48627;SDS011;34424;52.234;6.500;2023-04-03T00:49:22;5.75;;;2.35;;
48627;SDS011;34424;52.234;6.500;2023-04-03T00:54:26;3.83;;;2.07;;
48627;SDS011;34424;52.234;6.500;2023-04-03T00:59:30;4.63;;;2.47;;
48627;SDS011;34424;52.234;6.500;2023-04-03T01:04:37;6.93;;;2.95;;
48627;SDS011;34424;52.234;6.500;2023-04-03T01:09:43;5.15;;;2.67;;
48627;SDS011;34424;52.234;6.500;2023-04-03T01:14:48;3.78;;;2.03;;
48627;SDS011;34424;52.234;6.500;2023-04-03T01:19:54;4.53;;;2.65;;
48627;SDS011;34424;52.234;6.500;2023-04-03T01:25:18;5.18;;;2.85;;
48627;SDS011;34424;52.234;6.500;2023-04-03T01:30:21;2.97;;;2.05;;
48627;SDS011;34424;52.234;6.500;2023-04-03T01:35:29;4.82;;;2.10;;
48627;SDS011;34424;52.234;6.500;2023-04-03T01:40:32;5.30;;;2.30;;
48627;SDS011;34424;52.234;6.500;2023-04-03T01:45:35;4.25;;;2.65;;
48627;SDS011;34424;52.234;6.500;2023-04-03T01:50:39;5.77;;;2.40;;
48627;SDS011;34424;52.234;6.500;2023-04-03T01:55:42;6.45;;;2.70;;
48627;SDS011;34424;52.234;6.500;2023-04-03T02:00:45;4.37;;;2.23;;
48627;SDS011;34424;52.234;6.500;2023-04-03T02:05:50;7.03;;;2.43;;
48627;SDS011;34424;52.234;6.500;2023-04-03T02:10:53;5.13;;;2.45;;
48627;SDS011;34424;52.234;6.500;2023-04-03T02:15:55;9.57;;;3.60;;
48627;SDS011;34424;52.234;6.500;2023-04-03T02:20:59;5.22;;;2.40;;
48627;SDS011;34424;52.234;6.500;2023-04-03T02:26:03;6.07;;;2.88;;
48627;SDS011;34424;52.234;6.500;2023-04-03T02:31:07;6.72;;;3.35;;
48627;SDS011;34424;52.234;6.500;2023-04-03T02:36:12;3.20;;;2.63;;
48627;SDS011;34424;52.234;6.500;2023-04-03T02:41:15;8.05;;;3.30;;
48627;SDS011;34424;52.234;6.500;2023-04-03T02:46:18;5.90;;;2.40;;
48627;SDS011;34424;52.234;6.500;2023-04-03T02:51:22;5.00;;;2.67;;
48627;SDS011;34424;52.234;6.500;2023-04-03T02:56:25;5.03;;;3.65;;
48627;SDS011;34424;52.234;6.500;2023-04-03T03:01:27;7.23;;;3.27;;
48627;SDS011;34424;52.234;6.500;2023-04-03T03:06:34;5.82;;;2.63;;
48627;SDS011;34424;52.234;6.500;2023-04-03T03:11:36;7.25;;;3.08;;
48627;SDS011;34424;52.234;6.500;2023-04-03T03:16:39;8.13;;;2.97;;
48627;SDS011;34424;52.234;6.500;2023-04-03T03:21:43;6.55;;;2.95;;
48627;SDS011;34424;52.234;6.500;2023-04-03T03:26:45;8.05;;;3.28;;
48627;SDS011;34424;52.234;6.500;2023-04-03T03:31:48;5.13;;;2.97;;
48627;SDS011;34424;52.234;6.500;2023-04-03T03:36:52;3.73;;;3.37;;
48627;SDS011;34424;52.234;6.500;2023-04-03T03:41:55;4.80;;;3.50;;
48627;SDS011;34424;52.234;6.500;2023-04-03T03:46:57;8.43;;;3.53;;
48627;SDS011;34424;52.234;6.500;2023-04-03T03:52:02;4.90;;;2.78;;
48627;SDS011;34424;52.234;6.500;2023-04-03T03:57:05;6.55;;;3.80;;
48627;SDS011;34424;52.234;6.500;2023-04-03T04:02:07;7.57;;;3.53;;
48627;SDS011;34424;52.234;6.500;2023-04-03T04:07:12;4.17;;;3.00;;
48627;SDS011;34424;52.234;6.500;2023-04-03T04:12:14;7.47;;;3.38;;
48627;SDS011;34424;52.234;6.500;2023-04-03T04:17:17;9.10;;;3.53;;
48627;SDS011;34424;52.234;6.500;2023-04-03T04:22:22;5.00;;;3.47;;
48627;SDS011;34424;52.234;6.500;2023-04-03T04:27:24;6.97;;;3.50;;
48627;SDS011;34424;52.234;6.500;2023-04-03T04:32:27;6.68;;;3.83;;
48627;SDS011;34424;52.234;6.500;2023-04-03T04:37:31;9.20;;;4.17;;
48627;SDS011;34424;52.234;6.500;2023-04-03T04:42:34;9.05;;;4.13;;
48627;SDS011;34424;52.234;6.500;2023-04-03T04:47:36;10.02;;;4.45;;
48627;SDS011;34424;52.234;6.500;2023-04-03T04:52:40;9.60;;;3.90;;
48627;SDS011;34424;52.234;6.500;2023-04-03T04:57:43;9.95;;;4.53;;
48627;SDS011;34424;52.234;6.500;2023-04-03T05:02:46;6.80;;;3.70;;
48627;SDS011;34424;52.234;6.500;2023-04-03T05:07:49;11.43;;;3.53;;
48627;SDS011;34424;52.234;6.500;2023-04-03T05:12:52;11.25;;;3.75;;
48627;SDS011;34424;52.234;6.500;2023-04-03T05:17:55;5.10;;;3.88;;
48627;SDS011;34424;52.234;6.500;2023-04-03T05:22:59;8.40;;;3.80;;
48627;SDS011;34424;52.234;6.500;2023-04-03T05:28:01;6.32;;;3.83;;
48627;SDS011;34424;52.234;6.500;2023-04-03T05:33:04;7.93;;;3.35;;
48627;SDS011;34424;52.234;6.500;2023-04-03T05:38:08;9.10;;;3.55;;
48627;SDS011;34424;52.234;6.500;2023-04-03T05:43:11;7.40;;;3.38;;
48627;SDS011;34424;52.234;6.500;2023-04-03T05:48:14;6.57;;;3.15;;
48627;SDS011;34424;52.234;6.500;2023-04-03T05:53:19;4.38;;;2.92;;
48627;SDS011;34424;52.234;6.500;2023-04-03T05:58:24;7.93;;;3.22;;
48627;SDS011;34424;52.234;6.500;2023-04-03T06:03:27;6.28;;;3.20;;
48627;SDS011;34424;52.234;6.500;2023-04-03T06:08:31;10.13;;;3.10;;
48627;SDS011;34424;52.234;6.500;2023-04-03T06:13:34;6.38;;;3.20;;
48627;SDS011;34424;52.234;6.500;2023-04-03T06:18:38;6.10;;;3.00;;
48627;SDS011;34424;52.234;6.500;2023-04-03T06:23:42;5.40;;;2.75;;
48627;SDS011;34424;52.234;6.500;2023-04-03T06:28:44;5.85;;;3.22;;
48627;SDS011;34424;52.234;6.500;2023-04-03T06:33:47;6.53;;;2.92;;
48627;SDS011;34424;52.234;6.500;2023-04-03T06:38:51;3.47;;;2.17;;
48627;SDS011;34424;52.234;6.500;2023-04-03T06:43:54;7.13;;;2.63;;
48627;SDS011;34424;52.234;6.500;2023-04-03T06:48:57;3.10;;;2.13;;
48627;SDS011;34424;52.234;6.500;2023-04-03T06:54:02;3.23;;;2.03;;
48627;SDS011;34424;52.234;6.500;2023-04-03T06:59:06;4.95;;;2.13;;
48627;SDS011;34424;52.234;6.500;2023-04-03T07:04:09;2.25;;;1.63;;
48627;SDS011;34424;52.234;6.500;2023-04-03T07:09:13;2.43;;;1.70;;
48627;SDS011;34424;52.234;6.500;2023-04-03T07:14:16;4.28;;;2.08;;
48627;SDS011;34424;52.234;6.500;2023-04-03T07:19:19;4.82;;;1.75;;
48627;SDS011;34424;52.234;6.500;2023-04-03T07:24:23;5.25;;;1.48;;
48627;SDS011;34424;52.234;6.500;2023-04-03T07:29:27;3.28;;;1.67;;
48627;SDS011;34424;52.234;6.500;2023-04-03T07:34:29;2.95;;;1.17;;
48627;SDS011;34424;52.234;6.500;2023-04-03T07:44:36;3.53;;;1.20;;
48627;SDS011;34424;52.234;6.500;2023-04-03T07:49:39;3.03;;;1.30;;
48627;SDS011;34424;52.234;6.500;2023-04-03T07:59:46;1.30;;;1.13;;
48627;SDS011;34424;52.234;6.500;2023-04-03T08:04:49;2.13;;;1.50;;
48627;SDS011;34424;52.234;6.500;2023-04-03T08:09:53;2.03;;;1.10;;
48627;SDS011;34424;52.234;6.500;2023-04-03T08:14:55;3.88;;;1.52;;
48627;SDS011;34424;52.234;6.500;2023-04-03T08:19:58;1.42;;;1.05;;
48627;SDS011;34424;52.234;6.500;2023-04-03T08:25:02;1.90;;;0.95;;
48627;SDS011;34424;52.234;6.500;2023-04-03T08:30:06;3.22;;;0.90;;
48627;SDS011;34424;52.234;6.500;2023-04-03T08:35:10;1.73;;;0.95;;
48627;SDS011;34424;52.234;6.500;2023-04-03T08:45:19;1.38;;;0.93;;
48627;SDS011;34424;52.234;6.500;2023-04-03T08:50:30;1.50;;;0.90;;
48627;SDS011;34424;52.234;6.500;2023-04-03T08:55:42;7.40;;;0.90;;
48627;SDS011;34424;52.234;6.500;2023-04-03T09:00:47;1.45;;;0.70;;
48627;SDS011;34424;52.234;6.500;2023-04-03T09:05:53;1.30;;;0.70;;
48627;SDS011;34424;52.234;6.500;2023-04-03T09:11:09;1.95;;;0.88;;
48627;SDS011;34424;52.234;6.500;2023-04-03T09:16:25;0.95;;;0.65;;
48627;SDS011;34424;52.234;6.500;2023-04-03T09:21:35;2.15;;;0.73;;
48627;SDS011;34424;52.234;6.500;2023-04-03T09:26:43;0.80;;;0.57;;
48627;SDS011;34424;52.234;6.500;2023-04-03T09:31:52;1.50;;;0.80;;
48627;SDS011;34424;52.234;6.500;2023-04-03T09:37:00;1.25;;;0.88;;
48627;SDS011;34424;52.234;6.500;2023-04-03T09:42:13;1.73;;;0.70;;
48627;SDS011;34424;52.234;6.500;2023-04-03T09:47:22;2.58;;;1.10;;
48627;SDS011;34424;52.234;6.500;2023-04-03T09:52:27;0.85;;;0.70;;
48627;SDS011;34424;52.234;6.500;2023-04-03T09:57:33;1.77;;;0.80;;
48627;SDS011;34424;52.234;6.500;2023-04-03T10:02:36;1.05;;;0.80;;
48627;SDS011;34424;52.234;6.500;2023-04-03T10:07:41;1.33;;;0.73;;
48627;SDS011;34424;52.234;6.500;2023-04-03T10:13:04;5.05;;;1.38;;
48627;SDS011;34424;52.234;6.500;2023-04-03T10:18:17;5.03;;;1.17;;
48627;SDS011;34424;52.234;6.500;2023-04-03T10:23:31;5.03;;;1.33;;
48627;SDS011;34424;52.234;6.500;2023-04-03T10:28:43;0.82;;;0.65;;
48627;SDS011;34424;52.234;6.500;2023-04-03T10:33:56;0.63;;;0.50;;
48627;SDS011;34424;52.234;6.500;2023-04-03T10:39:06;2.90;;;0.95;;
48627;SDS011;34424;52.234;6.500;2023-04-03T10:44:23;1.45;;;0.80;;
48627;SDS011;34424;52.234;6.500;2023-04-03T10:49:38;2.35;;;1.08;;
48627;SDS011;34424;52.234;6.500;2023-04-03T10:55:02;1.63;;;0.80;;
48627;SDS011;34424;52.234;6.500;2023-04-03T11:00:18;1.10;;;1.00;;
48627;SDS011;34424;52.234;6.500;2023-04-03T11:05:26;0.73;;;0.70;;
48627;SDS011;34424;52.234;6.500;2023-04-03T11:10:36;1.63;;;1.33;;
48627;SDS011;34424;52.234;6.500;2023-04-03T11:15:44;0.70;;;0.70;;
48627;SDS011;34424;52.234;6.500;2023-04-03T11:20:50;2.10;;;0.80;;
48627;SDS011;34424;52.234;6.500;2023-04-03T11:26:00;2.15;;;0.75;;
48627;SDS011;34424;52.234;6.500;2023-04-03T11:31:19;1.75;;;0.80;;
48627;SDS011;34424;52.234;6.500;2023-04-03T11:36:42;3.58;;;1.20;;
48627;SDS011;34424;52.234;6.500;2023-04-03T11:41:48;3.00;;;1.40;;
48627;SDS011;34424;52.234;6.500;2023-04-03T11:46:59;1.63;;;0.90;;
48627;SDS011;34424;52.234;6.500;2023-04-03T11:52:02;2.83;;;1.00;;
48627;SDS011;34424;52.234;6.500;2023-04-03T12:02:42;1.38;;;0.85;;
48627;SDS011;34424;52.234;6.500;2023-04-03T12:13:26;1.27;;;1.00;;
48627;SDS011;34424;52.234;6.500;2023-04-03T12:24:01;1.88;;;1.58;;
48627;SDS011;34424;52.234;6.500;2023-04-03T12:29:10;3.20;;;1.30;;
48627;SDS011;34424;52.234;6.500;2023-04-03T12:34:24;2.15;;;1.00;;
48627;SDS011;34424;52.234;6.500;2023-04-03T12:39:43;2.00;;;1.20;;
48627;SDS011;34424;52.234;6.500;2023-04-03T12:45:05;2.13;;;1.70;;
48627;SDS011;34424;52.234;6.500;2023-04-03T12:50:20;4.53;;;1.52;;
48627;SDS011;34424;52.234;6.500;2023-04-03T12:55:26;2.42;;;1.08;;
48627;SDS011;34424;52.234;6.500;2023-04-03T13:00:29;3.17;;;1.30;;
48627;SDS011;34424;52.234;6.500;2023-04-03T13:05:36;2.63;;;1.30;;
48627;SDS011;34424;52.234;6.500;2023-04-03T13:10:43;1.90;;;0.88;;
48627;SDS011;34424;52.234;6.500;2023-04-03T13:15:52;3.05;;;1.20;;
48627;SDS011;34424;52.234;6.500;2023-04-03T13:20:58;1.05;;;0.90;;
48627;SDS011;34424;52.234;6.500;2023-04-03T13:26:05;3.13;;;1.15;;
48627;SDS011;34424;52.234;6.500;2023-04-03T13:31:15;2.20;;;1.10;;
48627;SDS011;34424;52.234;6.500;2023-04-03T13:36:23;1.65;;;1.10;;
48627;SDS011;34424;52.234;6.500;2023-04-03T13:41:30;2.03;;;1.30;;
48627;SDS011;34424;52.234;6.500;2023-04-03T13:46:35;2.88;;;1.10;;
48627;SDS011;34424;52.234;6.500;2023-04-03T13:51:39;3.17;;;1.40;;
48627;SDS011;34424;52.234;6.500;2023-04-03T13:56:42;2.78;;;1.65;;
48627;SDS011;34424;52.234;6.500;2023-04-03T14:01:45;7.90;;;2.58;;
48627;SDS011;34424;52.234;6.500;2023-04-03T14:06:52;4.45;;;1.50;;
48627;SDS011;34424;52.234;6.500;2023-04-03T14:11:57;2.92;;;1.65;;
48627;SDS011;34424;52.234;6.500;2023-04-03T14:17:03;2.08;;;1.20;;
48627;SDS011;34424;52.234;6.500;2023-04-03T14:22:27;2.08;;;1.33;;
48627;SDS011;34424;52.234;6.500;2023-04-03T14:27:33;2.17;;;1.25;;
48627;SDS011;34424;52.234;6.500;2023-04-03T14:32:39;1.85;;;1.20;;
48627;SDS011;34424;52.234;6.500;2023-04-03T14:37:43;3.92;;;1.10;;
48627;SDS011;34424;52.234;6.500;2023-04-03T14:42:46;3.55;;;1.40;;
48627;SDS011;34424;52.234;6.500;2023-04-03T14:47:50;2.92;;;1.45;;
48627;SDS011;34424;52.234;6.500;2023-04-03T14:52:57;1.23;;;1.00;;
48627;SDS011;34424;52.234;6.500;2023-04-03T14:58:00;6.97;;;1.30;;
48627;SDS011;34424;52.234;6.500;2023-04-03T15:03:03;3.47;;;1.45;;
48627;SDS011;34424;52.234;6.500;2023-04-03T15:08:09;2.72;;;1.42;;
48627;SDS011;34424;52.234;6.500;2023-04-03T15:13:20;2.70;;;1.50;;
48627;SDS011;34424;52.234;6.500;2023-04-03T15:18:23;2.47;;;1.43;;
48627;SDS011;34424;52.234;6.500;2023-04-03T15:23:32;3.70;;;1.30;;
48627;SDS011;34424;52.234;6.500;2023-04-03T15:28:36;1.85;;;1.27;;
48627;SDS011;34424;52.234;6.500;2023-04-03T15:33:40;1.52;;;0.88;;
48627;SDS011;34424;52.234;6.500;2023-04-03T15:38:45;3.25;;;1.42;;
48627;SDS011;34424;52.234;6.500;2023-04-03T15:43:47;2.65;;;1.20;;
48627;SDS011;34424;52.234;6.500;2023-04-03T15:48:50;2.27;;;1.20;;
48627;SDS011;34424;52.234;6.500;2023-04-03T15:53:54;2.55;;;1.20;;
48627;SDS011;34424;52.234;6.500;2023-04-03T15:58:57;2.20;;;1.10;;
48627;SDS011;34424;52.234;6.500;2023-04-03T16:03:59;2.03;;;1.00;;
48627;SDS011;34424;52.234;6.500;2023-04-03T16:09:03;2.63;;;1.17;;
48627;SDS011;34424;52.234;6.500;2023-04-03T16:14:06;1.92;;;1.45;;
48627;SDS011;34424;52.234;6.500;2023-04-03T16:19:09;2.03;;;1.30;;
48627;SDS011;34424;52.234;6.500;2023-04-03T16:24:13;2.63;;;1.40;;
48627;SDS011;34424;52.234;6.500;2023-04-03T16:29:19;1.67;;;1.50;;
48627;SDS011;34424;52.234;6.500;2023-04-03T16:34:21;1.60;;;1.50;;
48627;SDS011;34424;52.234;6.500;2023-04-03T16:39:28;2.42;;;1.10;;
48627;SDS011;34424;52.234;6.500;2023-04-03T16:44:30;2.95;;;1.85;;
48627;SDS011;34424;52.234;6.500;2023-04-03T16:49:33;1.70;;;1.60;;
48627;SDS011;34424;52.234;6.500;2023-04-03T16:54:37;1.70;;;1.38;;
48627;SDS011;34424;52.234;6.500;2023-04-03T16:59:40;2.78;;;1.23;;
48627;SDS011;34424;52.234;6.500;2023-04-03T17:04:43;3.53;;;1.42;;
48627;SDS011;34424;52.234;6.500;2023-04-03T17:09:47;2.70;;;1.50;;
48627;SDS011;34424;52.234;6.500;2023-04-03T17:14:50;3.35;;;1.40;;
48627;SDS011;34424;52.234;6.500;2023-04-03T17:19:53;1.67;;;1.37;;
48627;SDS011;34424;52.234;6.500;2023-04-03T17:24:58;4.20;;;2.28;;
48627;SDS011;34424;52.234;6.500;2023-04-03T17:30:01;4.60;;;2.85;;
48627;SDS011;34424;52.234;6.500;2023-04-03T17:35:05;3.53;;;3.22;;
48627;SDS011;34424;52.234;6.500;2023-04-03T17:40:14;4.22;;;2.90;;
48627;SDS011;34424;52.234;6.500;2023-04-03T17:45:18;2.22;;;1.90;;
48627;SDS011;34424;52.234;6.500;2023-04-03T17:50:21;2.07;;;1.30;;
48627;SDS011;34424;52.234;6.500;2023-04-03T17:55:25;5.10;;;1.97;;
48627;SDS011;34424;52.234;6.500;2023-04-03T18:00:28;3.72;;;1.60;;
48627;SDS011;34424;52.234;6.500;2023-04-03T18:05:30;2.53;;;2.23;;
48627;SDS011;34424;52.234;6.500;2023-04-03T18:10:35;6.93;;;4.85;;
48627;SDS011;34424;52.234;6.500;2023-04-03T18:15:39;3.80;;;2.33;;
48627;SDS011;34424;52.234;6.500;2023-04-03T18:20:45;2.58;;;2.05;;
48627;SDS011;34424;52.234;6.500;2023-04-03T18:25:49;3.77;;;2.73;;
48627;SDS011;34424;52.234;6.500;2023-04-03T18:30:52;5.85;;;2.55;;
48627;SDS011;34424;52.234;6.500;2023-04-03T18:35:55;3.63;;;2.57;;
48627;SDS011;34424;52.234;6.500;2023-04-03T18:40:59;5.43;;;1.90;;
48627;SDS011;34424;52.234;6.500;2023-04-03T18:46:04;3.65;;;2.10;;
48627;SDS011;34424;52.234;6.500;2023-04-03T18:51:09;2.47;;;1.60;;
48627;SDS011;34424;52.234;6.500;2023-04-03T18:56:15;2.65;;;1.88;;
48627;SDS011;34424;52.234;6.500;2023-04-03T19:01:17;2.75;;;2.30;;
48627;SDS011;34424;52.234;6.500;2023-04-03T19:06:20;3.90;;;1.97;;
48627;SDS011;34424;52.234;6.500;2023-04-03T19:11:24;5.37;;;2.67;;
48627;SDS011;34424;52.234;6.500;2023-04-03T19:16:30;4.50;;;2.00;;
48627;SDS011;34424;52.234;6.500;2023-04-03T19:21:33;3.83;;;2.33;;
48627;SDS011;34424;52.234;6.500;2023-04-03T19:26:42;3.90;;;2.30;;
48627;SDS011;34424;52.234;6.500;2023-04-03T19:31:44;3.17;;;1.83;;
48627;SDS011;34424;52.234;6.500;2023-04-03T19:36:47;4.27;;;2.40;;
48627;SDS011;34424;52.234;6.500;2023-04-03T19:41:53;3.20;;;2.20;;
48627;SDS011;34424;52.234;6.500;2023-04-03T19:46:56;4.43;;;2.13;;
48627;SDS011;34424;52.234;6.500;2023-04-03T19:51:59;3.55;;;1.88;;
48627;SDS011;34424;52.234;6.500;2023-04-03T19:57:03;5.55;;;4.25;;
48627;SDS011;34424;52.234;6.500;2023-04-03T20:02:06;6.22;;;4.65;;
48627;SDS011;34424;52.234;6.500;2023-04-03T20:07:09;3.13;;;2.60;;
48627;SDS011;34424;52.234;6.500;2023-04-03T20:12:14;2.58;;;2.38;;
48627;SDS011;34424;52.234;6.500;2023-04-03T20:17:17;7.65;;;5.70;;
48627;SDS011;34424;52.234;6.500;2023-04-03T20:22:20;9.00;;;4.53;;
48627;SDS011;34424;52.234;6.500;2023-04-03T20:32:27;10.18;;;4.75;;
48627;SDS011;34424;52.234;6.500;2023-04-03T20:37:30;8.87;;;6.10;;
48627;SDS011;34424;52.234;6.500;2023-04-03T20:42:35;8.98;;;5.38;;
48627;SDS011;34424;52.234;6.500;2023-04-03T20:47:38;10.50;;;5.90;;
48627;SDS011;34424;52.234;6.500;2023-04-03T20:52:40;7.20;;;5.63;;
48627;SDS011;34424;52.234;6.500;2023-04-03T20:57:45;8.23;;;6.33;;
48627;SDS011;34424;52.234;6.500;2023-04-03T21:02:55;7.97;;;6.15;;
48627;SDS011;34424;52.234;6.500;2023-04-03T21:19:20;5.72;;;4.90;;
48627;SDS011;34424;52.234;6.500;2023-04-03T21:24:22;4.28;;;3.88;;
48627;SDS011;34424;52.234;6.500;2023-04-03T21:29:25;6.78;;;4.32;;
48627;SDS011;34424;52.234;6.500;2023-04-03T21:34:29;7.93;;;5.43;;
48627;SDS011;34424;52.234;6.500;2023-04-03T21:39:32;12.60;;;6.80;;
48627;SDS011;34424;52.234;6.500;2023-04-03T21:44:35;10.67;;;7.43;;
48627;SDS011;34424;52.234;6.500;2023-04-03T21:49:39;23.93;;;13.77;;
48627;SDS011;34424;52.234;6.500;2023-04-03T21:54:42;12.90;;;7.80;;
48627;SDS011;34424;52.234;6.500;2023-04-03T21:59:45;23.97;;;15.23;;
48627;SDS011;34424;52.234;6.500;2023-04-03T22:04:49;20.23;;;12.55;;
48627;SDS011;34424;52.234;6.500;2023-04-03T22:09:52;15.98;;;9.70;;
48627;SDS011;34424;52.234;6.500;2023-04-03T22:14:54;9.57;;;6.47;;
48627;SDS011;34424;52.234;6.500;2023-04-03T22:19:58;8.30;;;5.72;;
48627;SDS011;34424;52.234;6.500;2023-04-03T22:25:01;9.63;;;5.03;;
48627;SDS011;34424;52.234;6.500;2023-04-03T22:30:04;6.90;;;5.23;;
48627;SDS011;34424;52.234;6.500;2023-04-03T22:35:09;6.88;;;4.60;;
48627;SDS011;34424;52.234;6.500;2023-04-03T22:40:12;6.15;;;4.50;;
48627;SDS011;34424;52.234;6.500;2023-04-03T22:45:14;9.52;;;5.38;;
48627;SDS011;34424;52.234;6.500;2023-04-03T22:50:18;4.90;;;4.37;;
48627;SDS011;34424;52.234;6.500;2023-04-03T22:55:21;5.95;;;3.85;;
48627;SDS011;34424;52.234;6.500;2023-04-03T23:05:29;6.32;;;4.13;;
48627;SDS011;34424;52.234;6.500;2023-04-03T23:10:32;5.38;;;4.10;;
48627;SDS011;34424;52.234;6.500;2023-04-03T23:15:35;5.82;;;4.20;;
48627;SDS011;34424;52.234;6.500;2023-04-03T23:20:40;6.07;;;4.57;;
48627;SDS011;34424;52.234;6.500;2023-04-03T23:25:42;6.50;;;4.30;;
48627;SDS011;34424;52.234;6.500;2023-04-03T23:30:45;8.77;;;4.43;;
48627;SDS011;34424;52.234;6.500;2023-04-03T23:35:49;4.77;;;4.00;;
48627;SDS011;34424;52.234;6.500;2023-04-03T23:40:52;7.18;;;4.30;;
48627;SDS011;34424;52.234;6.500;2023-04-03T23:45:56;7.30;;;4.82;;
48627;SDS011;34424;52.234;6.500;2023-04-03T23:51:00;6.60;;;4.57;;
48627;SDS011;34424;52.234;6.500;2023-04-03T23:56:02;13.68;;;5.43;;
